createdAt,value
2023-10-26T00:02:22.738Z,97988.75
2023-10-26T00:04:52.521Z,97989.63
2023-10-26T00:07:20.758Z,97991.44
2023-10-26T00:09:50.733Z,97997.66
2023-10-26T00:12:19.388Z,97988.16
2023-10-26T00:14:48.359Z,97992.81
2023-10-26T00:17:18.053Z,97985.72
2023-10-26T00:19:47.020Z,97957.69
2023-10-26T00:22:19.283Z,97895.97
2023-10-26T00:24:47.935Z,97978.53
2023-10-26T00:27:16.193Z,97982.69
2023-10-26T00:29:47.228Z,97987.47
2023-10-26T00:32:15.928Z,97994.31
2023-10-26T00:34:44.726Z,97977.00
2023-10-26T00:37:13.524Z,97992.47
2023-10-26T00:39:44.020Z,97994.91
2023-10-26T00:42:13.433Z,97995.31
2023-10-26T00:44:41.564Z,97997.25
2023-10-26T00:47:10.351Z,97996.78
2023-10-26T00:49:42.648Z,97909.34
2023-10-26T00:52:12.565Z,97998.47
2023-10-26T00:54:45.353Z,97991.44
2023-10-26T00:57:17.843Z,97986.91
2023-10-26T00:59:48.261Z,97994.84
2023-10-26T01:02:18.953Z,97998.03
2023-10-26T01:04:47.367Z,97991.44
2023-10-26T01:07:16.609Z,97995.94
2023-10-26T01:09:48.830Z,98001.41
2023-10-26T01:12:17.889Z,98009.97
2023-10-26T01:14:47.950Z,98012.03
2023-10-26T01:17:16.971Z,98013.22
2023-10-26T01:19:46.456Z,98021.78
2023-10-26T01:22:16.568Z,98016.78
2023-10-26T01:24:47.536Z,97980.66
2023-10-26T01:27:15.599Z,98018.00
2023-10-26T01:29:43.637Z,98020.91
2023-10-26T01:32:13.815Z,98002.34
2023-10-26T01:34:44.439Z,98028.94
2023-10-26T01:37:13.018Z,98035.28
2023-10-26T01:39:42.393Z,98037.28
2023-10-26T01:42:13.403Z,98037.13
2023-10-26T01:44:42.366Z,97974.56
2023-10-26T01:47:11.912Z,98057.75
2023-10-26T01:49:43.709Z,98050.94
2023-10-26T01:52:12.385Z,98057.03
2023-10-26T01:54:40.880Z,98046.41
2023-10-26T01:57:10.463Z,98069.34
2023-10-26T01:59:38.596Z,98066.66
2023-10-26T02:02:07.168Z,98062.88
2023-10-26T02:04:37.105Z,98050.81
2023-10-26T02:07:05.821Z,98033.09
2023-10-26T02:09:33.965Z,98081.91
2023-10-26T02:12:02.200Z,98057.13
2023-10-26T02:14:32.246Z,98079.56
2023-10-26T02:17:00.420Z,98096.50
2023-10-26T02:19:28.405Z,98074.06
2023-10-26T02:21:56.474Z,98092.81
2023-10-26T02:24:25.059Z,98102.09
2023-10-26T02:26:53.361Z,98009.84
2023-10-26T02:29:22.740Z,98108.91
2023-10-26T02:31:52.932Z,98113.63
2023-10-26T02:34:20.929Z,98106.25
2023-10-26T02:36:49.506Z,98111.50
2023-10-26T02:39:17.909Z,98107.84
2023-10-26T02:41:46.523Z,98092.25
2023-10-26T02:44:14.828Z,98111.59
2023-10-26T02:46:43.393Z,98096.00
2023-10-26T02:49:13.086Z,98103.00
2023-10-26T02:51:41.431Z,98118.72
2023-10-26T02:54:09.802Z,98125.50
2023-10-26T02:56:38.384Z,98106.50
2023-10-26T02:59:07.241Z,98126.94
2023-10-26T03:01:36.082Z,98084.72
2023-10-26T03:04:04.835Z,98119.38
2023-10-26T03:06:39.473Z,98105.88
2023-10-26T03:09:09.364Z,98129.19
2023-10-26T03:11:38.595Z,98103.69
2023-10-26T03:14:06.567Z,98124.31
2023-10-26T03:16:35.059Z,98131.09
2023-10-26T03:19:05.530Z,98134.97
2023-10-26T03:21:35.215Z,98133.19
2023-10-26T03:24:05.359Z,98141.97
2023-10-26T03:26:33.812Z,98151.84
2023-10-26T03:29:02.094Z,98058.75
2023-10-26T03:31:32.508Z,98152.34
2023-10-26T03:34:00.985Z,98156.84
2023-10-26T03:36:29.149Z,98151.88
2023-10-26T03:38:59.103Z,98156.25
2023-10-26T03:41:28.560Z,98155.69
2023-10-26T03:43:56.973Z,98143.38
2023-10-26T03:46:26.121Z,98161.56
2023-10-26T03:48:54.055Z,98021.97
2023-10-26T03:51:23.586Z,98150.69
2023-10-26T03:53:53.114Z,98159.44
2023-10-26T03:56:21.138Z,98156.19
2023-10-26T03:58:50.566Z,98160.16
2023-10-26T04:01:18.644Z,98159.91
2023-10-26T04:03:47.280Z,98161.69
2023-10-26T04:06:15.851Z,98155.06
2023-10-26T04:08:44.409Z,98153.56
2023-10-26T04:11:18.947Z,98152.22
2023-10-26T04:13:47.120Z,98155.53
2023-10-26T04:16:17.308Z,98162.88
2023-10-26T04:18:45.698Z,98152.63
2023-10-26T04:21:14.096Z,98100.00
2023-10-26T04:23:42.710Z,98153.50
2023-10-26T04:26:13.759Z,98151.78
2023-10-26T04:28:51.493Z,98152.97
2023-10-26T04:31:22.749Z,98150.72
2023-10-26T04:33:52.431Z,98145.47
2023-10-26T04:36:23.048Z,98104.50
2023-10-26T04:38:51.620Z,98124.94
2023-10-26T04:41:20.042Z,98114.97
2023-10-26T04:43:48.582Z,98141.28
2023-10-26T04:46:17.400Z,98135.09
2023-10-26T04:48:47.121Z,98150.19
2023-10-26T04:51:15.425Z,98154.63
2023-10-26T04:53:43.672Z,98164.09
2023-10-26T04:56:12.587Z,98151.59
2023-10-26T04:58:40.974Z,98153.50
2023-10-26T05:01:09.097Z,98135.81
2023-10-26T05:03:39.124Z,98145.81
2023-10-26T05:06:09.617Z,98148.59
2023-10-26T05:08:38.942Z,98152.22
2023-10-26T05:11:06.888Z,98154.88
2023-10-26T05:13:35.515Z,98155.72
2023-10-26T05:16:04.560Z,98147.28
2023-10-26T05:18:33.730Z,98144.50
2023-10-26T05:21:02.321Z,98110.38
2023-10-26T05:23:31.954Z,98160.56
2023-10-26T05:26:00.829Z,98153.16
2023-10-26T05:28:32.272Z,98119.25
2023-10-26T05:31:03.264Z,98025.00
2023-10-26T05:33:32.273Z,98107.59
2023-10-26T05:36:05.891Z,98070.63
2023-10-26T05:38:35.473Z,98053.59
2023-10-26T05:41:03.941Z,98030.03
2023-10-26T05:43:33.162Z,97958.41
2023-10-26T05:46:05.011Z,98018.31
2023-10-26T05:48:35.161Z,98079.00
2023-10-26T05:51:03.815Z,98148.75
2023-10-26T05:53:32.161Z,98064.72
2023-10-26T05:56:02.033Z,98091.91
2023-10-26T05:58:30.414Z,98149.09
2023-10-26T06:00:59.209Z,98089.56
2023-10-26T06:03:29.032Z,98000.31
2023-10-26T06:06:01.870Z,98138.81
2023-10-26T06:08:32.416Z,98152.25
2023-10-26T06:11:02.459Z,98155.59
2023-10-26T06:13:30.501Z,98155.63
2023-10-26T06:15:59.092Z,98149.09
2023-10-26T06:18:28.472Z,98070.28
2023-10-26T06:21:00.727Z,98023.25
2023-10-26T06:23:32.699Z,98136.81
2023-10-26T06:26:04.902Z,98003.50
2023-10-26T06:28:33.372Z,97976.50
2023-10-26T06:31:10.596Z,98168.22
2023-10-26T06:33:38.740Z,98169.97
2023-10-26T06:36:08.902Z,98071.16
2023-10-26T06:38:37.222Z,98018.59
2023-10-26T06:41:08.248Z,98165.06
2023-10-26T06:43:36.368Z,98102.59
2023-10-26T06:46:04.948Z,98189.69
2023-10-26T06:48:33.369Z,98190.13
2023-10-26T06:51:04.313Z,98195.84
2023-10-26T06:53:32.622Z,98192.25
2023-10-26T06:56:00.604Z,98199.78
2023-10-26T06:58:30.515Z,98189.38
2023-10-26T07:00:58.986Z,98184.34
2023-10-26T07:03:27.382Z,98196.09
2023-10-26T07:05:55.508Z,98107.97
2023-10-26T07:08:24.427Z,98110.28
2023-10-26T07:10:53.533Z,98141.09
2023-10-26T07:13:23.517Z,98207.56
2023-10-26T07:15:54.155Z,98199.94
2023-10-26T07:18:22.913Z,98200.31
2023-10-26T07:20:52.178Z,98163.78
2023-10-26T07:23:21.004Z,98203.34
2023-10-26T07:25:51.167Z,98207.22
2023-10-26T07:28:19.510Z,98070.09
2023-10-26T07:30:52.219Z,98214.03
2023-10-26T07:33:22.328Z,98207.75
2023-10-26T07:35:51.779Z,98212.13
2023-10-26T07:38:36.864Z,98155.44
2023-10-26T07:43:55.173Z,98212.63
2023-10-26T07:46:23.638Z,98137.00
2023-10-26T07:48:53.983Z,98185.75
2023-10-26T07:51:22.360Z,98182.84
2023-10-26T07:53:51.066Z,98222.97
2023-10-26T07:56:19.828Z,98184.66
2023-10-26T07:58:48.833Z,98231.50
2023-10-26T08:01:17.100Z,98227.91
2023-10-26T08:03:46.867Z,98204.81
2023-10-26T08:06:18.267Z,98206.13
2023-10-26T08:08:46.817Z,98218.97
2023-10-26T08:11:16.458Z,98226.66
2023-10-26T08:13:46.044Z,98229.78
2023-10-26T08:16:42.630Z,98229.53
2023-10-26T08:19:03.276Z,98223.69
2023-10-26T08:21:32.877Z,98215.63
2023-10-26T08:24:01.026Z,98184.47
2023-10-26T08:26:28.913Z,98236.22
2023-10-26T08:29:11.773Z,98238.09
2023-10-26T08:31:43.586Z,98246.28
2023-10-26T08:34:13.945Z,98236.09
2023-10-26T08:36:50.877Z,98187.38
2023-10-26T08:39:25.972Z,98240.91
2023-10-26T08:41:56.019Z,98210.19
2023-10-26T08:44:25.632Z,98250.59
2023-10-26T08:46:59.817Z,98253.09
2023-10-26T08:49:30.031Z,98192.09
2023-10-26T08:52:00.433Z,98251.91
2023-10-26T08:54:28.975Z,98257.50
2023-10-26T08:56:58.044Z,98248.78
2023-10-26T08:59:32.835Z,98263.00
2023-10-26T09:02:01.707Z,98207.88
2023-10-26T09:04:30.435Z,98188.09
2023-10-26T09:07:01.499Z,98272.91
2023-10-26T09:09:30.748Z,98256.88
2023-10-26T09:12:10.446Z,98281.81
2023-10-26T09:14:38.697Z,98284.06
2023-10-26T09:17:06.714Z,98282.47
2023-10-26T09:19:42.309Z,98251.19
2023-10-26T09:22:14.554Z,98202.19
2023-10-26T09:24:42.869Z,98177.22
2023-10-26T09:27:19.474Z,98275.72
2023-10-26T09:29:48.568Z,98277.88
2023-10-26T09:32:17.926Z,98271.19
2023-10-26T09:34:47.401Z,98288.13
2023-10-26T09:37:18.438Z,98174.75
2023-10-26T09:39:52.224Z,98289.63
2023-10-26T09:42:29.808Z,98208.00
2023-10-26T09:44:58.040Z,98288.13
2023-10-26T09:47:28.058Z,98294.03
2023-10-26T09:49:57.303Z,98226.25
2023-10-26T09:52:27.248Z,98306.13
2023-10-26T09:54:56.610Z,98303.84
2023-10-26T09:57:29.979Z,98296.72
2023-10-26T10:00:00.667Z,98232.81
2023-10-26T10:02:28.997Z,98296.47
2023-10-26T10:04:57.570Z,98307.72
2023-10-26T10:07:45.037Z,98308.00
2023-10-26T10:10:14.916Z,98281.59
2023-10-26T10:12:43.932Z,98318.28
2023-10-26T10:15:36.192Z,98325.69
2023-10-26T10:18:05.006Z,98301.63
2023-10-26T10:20:34.500Z,98330.72
2023-10-26T10:23:05.509Z,98298.94
2023-10-26T10:26:08.442Z,98323.41
2023-10-26T10:28:49.414Z,98319.03
2023-10-26T10:31:25.544Z,98311.75
2023-10-26T10:34:06.458Z,98320.56
2023-10-26T10:37:18.612Z,98332.19
2023-10-26T10:40:14.037Z,98333.41
2023-10-26T10:42:43.086Z,98340.19
2023-10-26T10:45:13.873Z,98335.63
2023-10-26T10:47:43.325Z,98334.94
2023-10-26T10:50:19.503Z,98332.25
2023-10-26T10:52:50.203Z,98319.00
2023-10-26T10:55:26.782Z,98312.28
2023-10-26T10:58:00.015Z,98218.97
2023-10-26T11:00:30.385Z,98350.09
2023-10-26T11:03:01.319Z,98352.97
2023-10-26T11:05:39.987Z,98345.72
2023-10-26T11:08:09.139Z,98341.84
2023-10-26T11:10:38.991Z,98203.97
2023-10-26T11:13:07.582Z,98340.75
2023-10-26T11:15:36.890Z,98318.47
2023-10-26T11:18:07.060Z,98336.88
2023-10-26T11:20:37.867Z,98329.22
2023-10-26T11:23:07.181Z,98327.53
2023-10-26T11:25:38.038Z,98333.97
2023-10-26T11:28:09.089Z,98290.31
2023-10-26T11:31:00.435Z,98330.31
2023-10-26T11:33:33.092Z,98329.97
2023-10-26T11:36:01.575Z,98326.19
2023-10-26T11:38:30.172Z,98331.56
2023-10-26T11:41:03.295Z,98334.53
2023-10-26T11:43:37.727Z,98330.94
2023-10-26T11:46:06.325Z,98339.00
2023-10-26T11:48:35.040Z,98334.81
2023-10-26T11:51:07.991Z,98320.66
2023-10-26T11:53:36.804Z,98325.09
2023-10-26T11:56:05.817Z,98327.94
2023-10-26T11:58:34.625Z,98314.84
2023-10-26T12:01:04.828Z,98331.19
2023-10-26T12:03:32.969Z,98280.06
2023-10-26T12:06:01.089Z,98233.22
2023-10-26T12:08:29.376Z,98329.56
2023-10-26T12:10:57.296Z,98329.72
2023-10-26T12:13:25.340Z,98327.59
2023-10-26T12:15:53.347Z,98330.59
2023-10-26T12:18:23.404Z,98279.81
2023-10-26T12:20:51.735Z,98335.03
2023-10-26T12:23:19.634Z,98304.00
2023-10-26T12:25:48.700Z,98336.06
2023-10-26T12:28:25.147Z,98332.91
2023-10-26T12:30:55.129Z,98328.03
2023-10-26T12:33:24.549Z,98334.16
2023-10-26T12:35:52.988Z,98338.88
2023-10-26T12:38:23.261Z,98338.63
2023-10-26T12:40:51.920Z,98271.00
2023-10-26T12:43:20.960Z,98358.13
2023-10-26T12:45:49.371Z,98361.41
2023-10-26T12:48:17.745Z,98359.72
2023-10-26T12:50:49.734Z,98304.34
2023-10-26T12:53:17.978Z,98349.75
2023-10-26T12:55:46.008Z,98362.78
2023-10-26T12:58:14.157Z,98341.19
2023-10-26T13:00:43.276Z,98361.56
2023-10-26T13:03:12.604Z,98276.97
2023-10-26T13:05:42.313Z,98358.41
2023-10-26T13:08:12.503Z,98358.41
2023-10-26T13:10:40.843Z,98353.53
2023-10-26T13:13:09.915Z,98362.09
2023-10-26T13:15:38.448Z,98359.31
2023-10-26T13:18:06.871Z,98357.97
2023-10-26T13:20:35.611Z,98357.22
2023-10-26T13:23:04.265Z,98352.59
2023-10-26T13:25:34.782Z,98349.66
2023-10-26T13:28:02.740Z,98335.59
2023-10-26T13:30:31.125Z,98338.78
2023-10-26T13:32:59.435Z,98307.25
2023-10-26T13:35:30.939Z,98314.72
2023-10-26T13:37:59.073Z,98338.63
2023-10-26T13:40:28.534Z,98338.13
2023-10-26T13:42:58.816Z,98336.25
2023-10-26T13:45:26.877Z,98292.53
2023-10-26T13:47:55.658Z,98295.09
2023-10-26T13:50:24.137Z,98339.03
2023-10-26T13:52:52.591Z,98340.34
2023-10-26T13:55:21.185Z,98329.00
2023-10-26T13:57:49.761Z,98315.38
2023-10-26T14:00:19.728Z,98334.41
2023-10-26T14:02:47.907Z,98331.88
2023-10-26T14:05:30.150Z,98329.94
2023-10-26T14:07:59.981Z,98333.69
2023-10-26T14:10:28.308Z,98222.22
2023-10-26T14:12:57.357Z,98336.72
2023-10-26T14:15:28.245Z,98325.00
2023-10-26T14:17:56.766Z,98304.22
2023-10-26T14:20:24.887Z,98326.25
2023-10-26T14:22:53.587Z,98321.56
2023-10-26T14:25:22.511Z,98315.25
2023-10-26T14:27:51.513Z,98290.78
2023-10-26T14:30:19.771Z,98309.16
2023-10-26T14:32:49.675Z,98268.91
2023-10-26T14:35:17.751Z,98310.47
2023-10-26T14:37:51.241Z,98315.69
2023-10-26T14:40:20.055Z,98298.34
2023-10-26T14:42:48.793Z,98313.03
2023-10-26T14:45:21.035Z,98283.91
2023-10-26T14:47:51.049Z,98310.47
2023-10-26T14:50:19.841Z,98287.25
2023-10-26T14:52:47.848Z,98303.94
2023-10-26T14:55:17.215Z,98238.56
2023-10-26T14:57:45.241Z,98315.19
2023-10-26T15:00:14.124Z,98318.84
2023-10-26T15:02:42.663Z,98326.16
2023-10-26T15:05:14.630Z,98195.66
2023-10-26T15:07:42.863Z,98312.03
2023-10-26T15:10:21.875Z,98319.75
2023-10-26T15:12:53.860Z,98323.19
2023-10-26T15:15:22.925Z,98324.88
2023-10-26T15:17:52.814Z,98307.34
2023-10-26T15:20:25.502Z,98325.34
2023-10-26T15:22:53.618Z,98265.19
2023-10-26T15:25:23.063Z,98303.72
2023-10-26T15:27:51.478Z,98313.38
2023-10-26T15:30:19.539Z,98307.91
2023-10-26T15:32:47.544Z,98311.91
2023-10-26T15:35:15.875Z,98301.63
2023-10-26T15:37:47.215Z,98229.75
2023-10-26T15:40:15.701Z,98305.69
2023-10-26T15:42:43.668Z,98307.41
2023-10-26T15:45:12.865Z,98299.91
2023-10-26T15:47:41.033Z,98293.94
2023-10-26T15:50:11.591Z,98299.44
2023-10-26T15:52:40.088Z,98296.09
2023-10-26T15:55:10.469Z,98279.19
2023-10-26T15:57:39.551Z,98293.22
2023-10-26T16:00:10.621Z,98298.25
2023-10-26T16:02:39.171Z,98300.41
2023-10-26T16:05:07.734Z,98300.19
2023-10-26T16:07:36.464Z,98292.78
2023-10-26T16:10:05.004Z,98286.06
2023-10-26T16:12:34.813Z,98213.44
2023-10-26T16:15:03.218Z,98151.94
2023-10-26T16:17:33.003Z,98295.91
2023-10-26T16:20:01.784Z,98159.53
2023-10-26T16:22:33.982Z,98222.69
2023-10-26T16:25:04.731Z,98300.22
2023-10-26T16:27:34.989Z,98273.22
2023-10-26T16:30:04.778Z,98295.16
2023-10-26T16:32:35.863Z,98302.13
2023-10-26T16:35:05.732Z,98297.97
2023-10-26T16:37:33.757Z,98269.31
2023-10-26T16:40:02.128Z,98294.09
2023-10-26T16:42:30.224Z,98157.91
2023-10-26T16:45:01.409Z,98194.19
2023-10-26T16:47:31.302Z,98283.94
2023-10-26T16:50:02.347Z,98282.63
2023-10-26T16:52:31.714Z,98230.13
2023-10-26T16:55:00.105Z,98276.28
2023-10-26T16:57:28.402Z,98290.66
2023-10-26T16:59:56.890Z,98202.53
2023-10-26T17:02:26.792Z,98255.00
2023-10-26T17:04:56.681Z,98250.19
2023-10-26T17:07:26.377Z,98221.78
2023-10-26T17:09:54.732Z,98210.03
2023-10-26T17:12:22.957Z,98296.34
2023-10-26T17:14:51.448Z,98250.16
2023-10-26T17:17:19.575Z,98162.75
2023-10-26T17:19:49.462Z,98296.34
2023-10-26T17:22:18.850Z,98281.09
2023-10-26T17:24:48.216Z,98260.34
2023-10-26T17:27:16.545Z,98272.53
2023-10-26T17:29:47.952Z,98276.84
2023-10-26T17:32:17.129Z,98275.00
2023-10-26T17:34:45.204Z,98272.13
2023-10-26T17:37:14.632Z,98292.06
2023-10-26T17:39:43.664Z,98164.22
2023-10-26T17:42:11.829Z,98294.72
2023-10-26T17:44:40.845Z,98285.84
2023-10-26T17:47:08.995Z,98300.06
2023-10-26T17:49:37.445Z,98213.47
2023-10-26T17:52:07.149Z,98247.38
2023-10-26T17:54:36.931Z,98297.00
2023-10-26T17:57:05.691Z,98200.94
2023-10-26T17:59:33.725Z,98309.72
2023-10-26T18:02:07.114Z,98316.66
2023-10-26T18:04:35.835Z,98218.97
2023-10-26T18:07:04.390Z,98222.09
2023-10-26T18:09:35.048Z,98315.56
2023-10-26T18:12:05.498Z,98307.75
2023-10-26T18:14:33.973Z,98290.50
2023-10-26T18:17:02.191Z,98313.53
2023-10-26T18:19:30.702Z,98270.63
2023-10-26T18:21:58.961Z,98291.56
2023-10-26T18:24:27.399Z,98277.22
2023-10-26T18:26:55.759Z,98324.22
2023-10-26T18:29:25.691Z,98267.03
2023-10-26T18:31:53.726Z,98313.84
2023-10-26T18:34:22.251Z,98317.03
2023-10-26T18:36:50.672Z,98298.63
2023-10-26T18:39:18.944Z,98293.47
2023-10-26T18:41:47.265Z,98285.78
2023-10-26T18:44:16.405Z,98291.38
2023-10-26T18:46:45.979Z,98285.38
2023-10-26T18:49:15.115Z,98213.88
2023-10-26T18:51:43.638Z,98293.94
2023-10-26T18:54:13.194Z,98278.19
2023-10-26T18:56:41.862Z,98285.38
2023-10-26T18:59:12.328Z,98275.44
2023-10-26T19:01:40.787Z,98262.88
2023-10-26T19:04:10.516Z,98253.03
2023-10-26T19:06:42.173Z,98088.78
2023-10-26T19:09:10.728Z,98154.03
2023-10-26T19:11:39.289Z,98179.91
2023-10-26T19:14:08.075Z,98209.69
2023-10-26T19:16:36.593Z,98320.84
2023-10-26T19:19:05.078Z,98271.81
2023-10-26T19:21:34.493Z,98309.28
2023-10-26T19:24:02.937Z,98297.81
2023-10-26T19:26:30.960Z,98195.31
2023-10-26T19:28:59.704Z,98230.66
2023-10-26T19:31:28.497Z,98289.69
2023-10-26T19:33:57.529Z,98292.16
2023-10-26T19:36:25.591Z,98317.00
2023-10-26T19:38:55.558Z,98317.84
2023-10-26T19:41:23.413Z,98312.50
2023-10-26T19:43:52.023Z,98305.69
2023-10-26T19:46:20.888Z,98293.47
2023-10-26T19:48:49.037Z,98277.69
2023-10-26T19:51:17.569Z,98296.97
2023-10-26T19:53:48.293Z,98290.06
2023-10-26T19:56:18.051Z,98302.78
2023-10-26T19:58:46.811Z,98300.69
2023-10-26T20:01:15.813Z,98293.94
2023-10-26T20:03:44.181Z,98266.63
2023-10-26T20:06:12.347Z,98282.75
2023-10-26T20:08:40.749Z,98282.38
2023-10-26T20:11:11.027Z,98251.78
2023-10-26T20:13:41.702Z,98237.84
2023-10-26T20:16:10.407Z,98286.53
2023-10-26T20:18:40.079Z,98293.72
2023-10-26T20:21:08.799Z,98237.91
2023-10-26T20:23:37.165Z,98272.59
2023-10-26T20:26:06.381Z,98292.03
2023-10-26T20:28:35.141Z,98257.16
2023-10-26T20:31:05.185Z,98290.03
2023-10-26T20:33:33.495Z,98297.41
2023-10-26T20:36:01.639Z,98186.06
2023-10-26T20:38:30.576Z,98130.44
2023-10-26T20:40:58.744Z,98217.13
2023-10-26T20:43:27.276Z,98287.09
2023-10-26T20:45:59.204Z,98209.78
2023-10-26T20:48:30.024Z,98298.94
2023-10-26T20:50:59.921Z,98289.09
2023-10-26T20:53:29.312Z,98146.84
2023-10-26T20:56:00.934Z,98264.78
2023-10-26T20:58:30.011Z,98190.38
2023-10-26T21:00:58.265Z,98297.59
2023-10-26T21:03:26.682Z,98297.31
2023-10-26T21:06:05.757Z,98136.53
2023-10-26T21:08:35.855Z,98283.25
2023-10-26T21:11:05.154Z,98279.94
2023-10-26T21:13:33.473Z,98281.63
2023-10-26T21:16:02.501Z,98266.63
2023-10-26T21:18:30.826Z,98246.47
2023-10-26T21:20:58.806Z,98224.97
2023-10-26T21:23:29.461Z,98273.66
2023-10-26T21:25:57.698Z,98233.53
2023-10-26T21:28:27.577Z,98289.06
2023-10-26T21:30:56.145Z,98283.25
2023-10-26T21:33:25.971Z,98288.09
2023-10-26T21:35:54.032Z,98248.56
2023-10-26T21:38:24.216Z,98266.81
2023-10-26T21:40:54.239Z,98177.56
2023-10-26T21:43:22.710Z,98222.78
2023-10-26T21:45:50.854Z,98261.38
2023-10-26T21:48:19.688Z,98189.66
2023-10-26T21:50:47.945Z,98230.97
2023-10-26T21:53:18.103Z,98258.81
2023-10-26T21:55:46.025Z,98273.38
2023-10-26T21:58:15.809Z,98245.19
2023-10-26T22:00:43.926Z,98260.50
2023-10-26T22:03:12.439Z,98211.91
2023-10-26T22:05:40.789Z,98266.94
2023-10-26T22:08:09.035Z,98198.25
2023-10-26T22:10:37.272Z,98136.03
2023-10-26T22:13:05.377Z,98122.44
2023-10-26T22:15:35.593Z,98256.09
2023-10-26T22:18:04.459Z,98201.50
2023-10-26T22:20:33.821Z,98232.94
2023-10-26T22:23:01.919Z,98254.38
2023-10-26T22:25:29.868Z,98249.16
2023-10-26T22:27:58.848Z,98250.94
2023-10-26T22:30:27.579Z,98212.28
2023-10-26T22:32:57.588Z,98167.41
2023-10-26T22:35:25.780Z,98222.84
2023-10-26T22:37:54.766Z,98247.44
2023-10-26T22:40:23.587Z,98142.44
2023-10-26T22:42:51.861Z,98231.63
2023-10-26T22:45:20.297Z,98218.63
2023-10-26T22:47:48.972Z,98208.94
2023-10-26T22:50:18.509Z,98215.41
2023-10-26T22:52:46.571Z,98214.63
2023-10-26T22:55:14.794Z,98206.72
2023-10-26T22:57:44.101Z,98203.69
2023-10-26T23:00:13.075Z,98203.97
2023-10-26T23:02:41.536Z,98202.84
2023-10-26T23:05:10.412Z,98189.41
2023-10-26T23:07:39.860Z,98140.34
2023-10-26T23:10:08.994Z,98208.16
2023-10-26T23:12:37.708Z,98192.72
2023-10-26T23:15:06.367Z,98192.72
2023-10-26T23:17:34.765Z,98105.13
2023-10-26T23:20:03.385Z,98183.97
2023-10-26T23:22:31.743Z,98174.53
2023-10-26T23:25:02.428Z,98038.69
2023-10-26T23:27:30.778Z,98127.88
2023-10-26T23:30:00.885Z,98073.25
2023-10-26T23:32:30.370Z,98180.28
2023-10-26T23:34:58.826Z,98139.59
2023-10-26T23:37:27.422Z,98167.59
2023-10-26T23:39:55.535Z,98174.06
2023-10-26T23:42:25.333Z,98161.69
2023-10-26T23:44:54.315Z,98172.16
2023-10-26T23:47:22.662Z,98176.34
2023-10-26T23:49:51.074Z,98161.59
2023-10-26T23:52:19.207Z,98166.25
2023-10-26T23:54:47.254Z,98151.50
2023-10-26T23:57:15.602Z,98164.34
2023-10-26T23:59:45.367Z,98171.97
